Time;durP1;ratioP1;P1;durP2;ratioP2;P2;SDS_P1;SDS_P2;PMS_P1;PMS_P2;Temp;Humidity;BMP_temperature;BMP_pressure;BME280_temperature;BME280_humidity;BME280_pressure;Samples;Min_cycle;Max_cycle;Signal;HPM_P1;HPM_P2
2021/05/30 00:07:34;;;;;;;12.33;7.75;;;;;;;16.46;100.00;100125.58;1319757;106;21237;-89
2021/05/30 00:10:18;;;;;;;7.45;6.70;;;;;;;16.59;100.00;100126.86;1274944;107;21305;-90
2021/05/30 00:13:18;;;;;;;;;;;;;;;;;;;;;
2021/05/30 00:17:14;;;;;;;;;;;;;;;;;;;;;
2021/05/30 00:26:04;;;;;;;;;;;;;;;;;;;;;
2021/05/30 00:29:55;;;;;;;;;;;;;;;;;;;;;
2021/05/30 00:33:45;;;;;;;;;;;;;;;;;;;;;
2021/05/30 00:37:45;;;;;;;;;;;;;;;;;;;;;
2021/05/30 00:42:19;;;;;;;;;;;;;;;;;;;;;
2021/05/30 00:45:50;;;;;;;;;;;;;;;;;;;;;
2021/05/30 00:49:19;;;;;;;;;;;;;;;;;;;;;
2021/05/30 00:52:54;;;;;;;;;;;;;;;;;;;;;
2021/05/30 01:01:31;;;;;;;5.00;4.50;;;;;;;16.23;100.00;100163.50;1295300;109;21211;-87
2021/05/30 01:05:01;;;;;;;;;;;;;;;;;;;;;
2021/05/30 01:12:19;;;;;;;;;;;;;;;;;;;;;
2021/05/30 01:15:50;;;;;;;;;;;;;;;;;;;;;
2021/05/30 01:26:17;;;;;;;5.30;4.00;;;;;;;16.38;100.00;100176.31;1360378;102;21164;-86
2021/05/30 01:38:05;;;;;;;;;;;;;;;;;;;;;
2021/05/30 01:45:12;;;;;;;;;;;;;;;;;;;;;
2021/05/30 01:54:20;;;;;;;;;;;;;;;;;;;;;
2021/05/30 01:57:09;;;;;;;4.97;4.47;;;;;;;15.97;100.00;100178.92;1248376;109;21261;-90
2021/05/30 02:00:46;;;;;;;;;;;;;;;;;;;;;
2021/05/30 02:09:57;;;;;;;;;;;;;;;;;;;;;
2021/05/30 02:19:01;;;;;;;;;;;;;;;;;;;;;
2021/05/30 03:02:51;;;;;;;;;;;;;;;;;;;;;
2021/05/30 03:06:38;;;;;;;5.55;5.03;;;;;;;15.08;100.00;100234.75;1323918;104;21231;-88
2021/05/30 03:12:13;;;;;;;;;;;;;;;;;;;;;
2021/05/30 03:14:47;;;;;;;;;;;;;;;;;;;;;
2021/05/30 03:17:22;;;;;;;;;;;;;;;;;;;;;
2021/05/30 03:20:01;;;;;;;;;;;;;;;;;;;;;
2021/05/30 03:22:28;;;;;;;10.50;5.17;;;;;;;14.82;100.00;100239.02;1237421;110;21268;-88
2021/05/30 03:25:01;;;;;;;17.32;5.00;;;;;;;14.88;100.00;100244.14;1314565;105;21302;-85
2021/05/30 03:27:41;;;;;;;7.40;4.80;;;;;;;14.91;100.00;100246.44;1362614;102;21237;-88
2021/05/30 03:30:08;;;;;;;9.33;4.95;;;;;;;14.96;100.00;100244.67;1402931;100;21216;-88
2021/05/30 03:32:43;;;;;;;6.00;4.28;;;;;;;15.02;100.00;100251.11;1410198;100;21150;-87
2021/05/30 03:35:14;;;;;;;6.67;4.53;;;;;;;15.05;100.00;100239.83;1463099;94;21630;-87
2021/05/30 03:37:40;;;;;;;;;;;;;;;15.06;100.00;100242.78;1501917;91;22729;-88
2021/05/30 03:42:50;;;;;;;4.75;4.35;;;;;;;15.24;100.00;100232.73;1571296;89;21108;-86
2021/05/30 03:45:16;;;;;;;10.58;4.47;;;;;;;15.30;100.00;100241.29;1548747;91;21153;-87
2021/05/30 03:47:44;;;;;;;4.92;4.50;;;;;;;15.35;100.00;100239.52;1522079;92;21081;-88
2021/05/30 03:50:11;;;;;;;5.60;4.10;;;;;;;15.34;100.00;100242.64;1516857;93;21877;-86
2021/05/30 03:52:38;;;;;;;6.53;4.80;;;;;;;15.32;100.00;100243.27;1516656;93;21170;-88
2021/05/30 03:55:08;;;;;;;4.95;3.95;;;;;;;15.34;100.00;100246.58;1521154;94;21126;-88
2021/05/30 03:57:37;;;;;;;4.67;4.03;;;;;;;15.42;100.00;100245.27;1529321;92;21124;-86
2021/05/30 04:00:10;;;;;;;5.80;3.98;;;;;;;15.44;100.00;100247.27;1525795;92;21244;-85
2021/05/30 04:02:41;;;;;;;4.30;3.90;;;;;;;15.44;100.00;100252.51;1526756;92;21139;-86
2021/05/30 04:05:10;;;;;;;4.10;3.70;;;;;;;15.50;100.00;100255.00;1523797;91;21743;-86
2021/05/30 04:07:38;;;;;;;7.20;4.10;;;;;;;15.57;100.00;100256.52;1544254;87;21163;-87
2021/05/30 04:10:10;;;;;;;5.58;4.15;;;;;;;15.61;100.00;100252.59;1588111;87;21127;-84
2021/05/30 04:12:42;;;;;;;15.20;4.83;;;;;;;15.64;100.00;100250.14;1702099;81;21589;-85
2021/05/30 04:15:12;;;;;;;11.40;4.08;;;;;;;15.65;100.00;100253.94;1747549;80;21617;-91
2021/05/30 04:17:41;;;;;;;5.35;4.00;;;;;;;15.64;100.00;100252.29;1748306;80;21364;-88
2021/05/30 04:20:12;;;;;;;3.90;3.60;;;;;;;15.57;100.00;100259.15;1717779;81;21450;-91
2021/05/30 04:22:40;;;;;;;5.78;3.70;;;;;;;15.45;100.00;100258.59;1720285;80;21143;-93
2021/05/30 04:25:10;;;;;;;3.60;3.30;;;;;;;15.40;100.00;100264.31;1730447;80;21071;-90
2021/05/30 04:27:38;;;;;;;7.58;3.60;;;;;;;15.41;100.00;100265.12;1721665;81;21131;-90
2021/05/30 04:30:07;;;;;;;4.00;3.62;;;;;;;15.49;100.00;100260.42;1757542;79;21150;-92
2021/05/30 04:32:35;;;;;;;7.30;3.77;;;;;;;15.57;100.00;100265.70;1731268;80;21078;-91
2021/05/30 04:35:04;;;;;;;6.10;4.10;;;;;;;15.68;100.00;100265.41;1732223;80;21007;-89
2021/05/30 04:37:32;;;;;;;5.83;3.50;;;;;;;15.70;100.00;100260.84;1730554;81;21566;-89
2021/05/30 04:39:59;;;;;;;7.30;3.70;;;;;;;15.70;100.00;100267.91;1729423;81;21052;-92
2021/05/30 04:42:26;;;;;;;4.03;3.72;;;;;;;15.72;100.00;100265.45;1752957;80;21087;-90
2021/05/30 04:44:54;;;;;;;4.20;3.80;;;;;;;15.79;100.00;100259.05;1730701;80;21549;-91
2021/05/30 04:47:21;;;;;;;4.83;3.77;;;;;;;15.94;100.00;100255.38;1729832;80;21600;-90
2021/05/30 04:49:49;;;;;;;6.85;4.08;;;;;;;16.08;100.00;100252.12;1732012;80;21066;-90
2021/05/30 04:52:18;;;;;;;9.90;3.65;;;;;;;16.23;100.00;100262.00;1733691;81;21658;-88
2021/05/30 04:54:46;;;;;;;4.55;3.90;;;;;;;16.38;100.00;100255.64;1727597;81;21109;-91
2021/05/30 04:57:13;;;;;;;5.45;3.70;;;;;;;16.43;100.00;100255.97;1732598;80;21485;-88
2021/05/30 04:59:40;;;;;;;6.45;3.87;;;;;;;16.41;100.00;100257.95;1728420;80;21115;-92
2021/05/30 05:02:07;;;;;;;4.20;3.80;;;;;;;16.35;100.00;100252.85;1732745;80;21124;-91
2021/05/30 05:04:34;;;;;;;5.78;3.50;;;;;;;16.33;100.00;100253.50;1754122;80;21104;-90
2021/05/30 05:07:01;;;;;;;8.25;3.55;;;;;;;16.23;100.00;100254.97;1735761;80;21114;-90
2021/05/30 05:09:32;;;;;;;7.55;3.92;;;;;;;16.19;100.00;100260.70;1761127;80;21079;-91
2021/05/30 05:11:59;;;;;;;4.37;3.98;;;;;;;16.20;100.00;100255.28;1731585;80;21594;-92
2021/05/30 05:14:41;;;;;;;6.87;3.75;;;;;;;16.29;100.00;100260.08;1730714;80;21051;-89
2021/05/30 05:17:05;;;;;;;10.98;4.10;;;;;;;16.42;100.00;100259.60;1745400;80;21620;-90
2021/05/30 05:19:32;;;;;;;4.40;4.00;;;;;;;16.61;100.00;100258.47;1746276;80;21008;-89
2021/05/30 05:21:59;;;;;;;4.33;3.75;;;;;;;16.75;100.00;100258.79;1749255;80;21023;-87
2021/05/30 05:24:26;;;;;;;4.72;3.70;;;;;;;16.74;100.00;100264.55;1764029;80;21100;-88
2021/05/30 05:26:56;;;;;;;7.22;4.03;;;;;;;16.70;100.00;100269.28;1728604;81;21103;-92
2021/05/30 05:29:23;;;;;;;4.85;3.80;;;;;;;16.67;100.00;100263.06;1766871;79;21100;-89
2021/05/30 05:31:50;;;;;;;3.70;3.40;;;;;;;16.64;100.00;100263.88;1763878;79;21609;-96
2021/05/30 05:34:18;;;;;;;3.67;3.27;;;;;;;16.62;100.00;100262.74;1755069;79;21096;-89
2021/05/30 05:36:45;;;;;;;6.08;3.83;;;;;;;16.62;100.00;100260.59;1747461;80;20996;-91
2021/05/30 05:39:12;;;;;;;5.58;3.62;;;;;;;16.63;100.00;100266.98;1773341;79;21025;-90
2021/05/30 05:41:40;;;;;;;3.77;3.37;;;;;;;16.65;100.00;100270.28;1758048;79;21040;-88
2021/05/30 05:44:07;;;;;;;5.97;3.35;;;;;;;16.65;100.00;100274.23;1749773;79;21110;-89
2021/05/30 05:46:34;;;;;;;4.17;3.72;;;;;;;16.71;100.00;100281.95;1759157;79;21053;-89
2021/05/30 05:49:01;;;;;;;3.65;3.35;;;;;;;16.82;100.00;100285.59;1768067;79;21088;-90
2021/05/30 05:51:28;;;;;;;5.20;3.37;;;;;;;16.92;100.00;100281.47;1757471;79;21092;-88
2021/05/30 05:53:55;;;;;;;4.75;3.50;;;;;;;16.91;100.00;100285.08;1757201;79;21144;-90
2021/05/30 05:56:22;;;;;;;3.40;3.10;;;;;;;16.87;100.00;100274.07;1749796;80;21091;-93
2021/05/30 05:58:49;;;;;;;3.60;3.30;;;;;;;16.88;100.00;100281.45;1716057;81;21104;-91
2021/05/30 06:01:16;;;;;;;4.50;3.08;;;;;;;16.93;100.00;100275.26;1699142;82;21666;-88
2021/05/30 06:03:43;;;;;;;3.72;3.20;;;;;;;16.99;100.00;100278.53;1760000;79;21581;-88
2021/05/30 06:06:12;;;;;;;2.80;2.60;;;;;;;17.01;100.00;100285.77;1775500;79;21283;-90
2021/05/30 06:08:39;;;;;;;2.83;2.60;;;;;;;17.00;100.00;100282.81;1749060;79;21677;-88
2021/05/30 06:11:07;;;;;;;6.22;2.25;;;;;;;16.95;100.00;100288.23;1733480;79;21108;-90
2021/05/30 06:13:36;;;;;;;5.40;2.50;;;;;;;16.93;100.00;100283.63;1741062;80;21041;-92
2021/05/30 06:16:06;;;;;;;2.95;2.65;;;;;;;16.93;100.00;100277.89;1737646;80;21096;-90
2021/05/30 06:18:35;;;;;;;3.90;2.35;;;;;;;17.02;100.00;100282.13;1713574;81;21048;-89
2021/05/30 06:21:02;;;;;;;2.70;2.50;;;;;;;17.17;100.00;100282.29;1737509;81;21092;-91
2021/05/30 06:23:29;;;;;;;2.50;2.30;;;;;;;17.24;100.00;100281.14;1737555;80;21602;-90
2021/05/30 06:25:56;;;;;;;1.90;1.80;;;;;;;17.26;100.00;100275.70;1682258;84;21112;-90
2021/05/30 06:28:25;;;;;;;1.87;1.77;;;;;;;17.26;100.00;100285.74;1681848;84;21187;-92
2021/05/30 06:30:53;;;;;;;2.00;1.90;;;;;;;17.30;100.00;100286.23;1678937;84;21104;-89
2021/05/30 06:33:20;;;;;;;2.42;2.22;;;;;;;17.46;100.00;100291.94;1719862;80;21068;-91
2021/05/30 06:36:01;;;;;;;;;;;;;;;;;;;;;
2021/05/30 06:38:24;;;;;;;5.28;2.02;;;;;;;17.76;100.00;100289.53;1758457;80;21132;-90
2021/05/30 06:40:51;;;;;;;2.20;1.98;;;;;;;17.68;100.00;100297.45;1743877;80;21076;-90
2021/05/30 06:43:18;;;;;;;4.80;2.35;;;;;;;17.66;100.00;100293.21;1744310;80;21699;-91
2021/05/30 06:45:45;;;;;;;2.85;1.87;;;;;;;17.67;100.00;100295.34;1744243;80;21080;-87
2021/05/30 06:48:13;;;;;;;2.87;1.90;;;;;;;17.60;100.00;100297.81;1704832;80;21751;-91
2021/05/30 06:50:40;;;;;;;2.15;1.90;;;;;;;17.54;100.00;100304.27;1799155;78;21315;-89
2021/05/30 06:53:07;;;;;;;2.22;2.02;;;;;;;17.51;100.00;100302.77;1769506;80;21028;-88
2021/05/30 06:55:34;;;;;;;2.98;1.90;;;;;;;17.49;100.00;100303.45;1769852;79;21648;-89
2021/05/30 06:58:01;;;;;;;5.53;1.90;;;;;;;17.46;100.00;100307.73;1772986;78;21095;-86
2021/05/30 07:00:28;;;;;;;7.42;2.05;;;;;;;17.50;100.00;100309.05;1785147;79;21051;-85
2021/05/30 07:02:55;;;;;;;2.10;1.80;;;;;;;17.62;100.00;100310.32;1784568;79;21170;-85
2021/05/30 07:05:24;;;;;;;3.02;1.82;;;;;;;17.73;100.00;100316.22;1767979;80;21015;-86
2021/05/30 07:07:51;;;;;;;2.10;1.67;;;;;;;17.86;100.00;100311.73;1784525;79;21147;-87
2021/05/30 07:10:18;;;;;;;1.80;1.70;;;;;;;17.96;100.00;100320.27;1772441;79;21716;-88
2021/05/30 07:12:46;;;;;;;2.58;1.62;;;;;;;18.00;100.00;100324.69;1800199;78;21032;-86
2021/05/30 07:15:13;;;;;;;3.90;1.92;;;;;;;18.01;100.00;100321.07;1814189;78;21039;-86
2021/05/30 07:17:41;;;;;;;2.62;1.80;;;;;;;17.96;100.00;100321.58;1753635;80;21090;-87
2021/05/30 07:20:10;;;;;;;1.70;1.60;;;;;;;17.97;100.00;100321.43;1781981;79;20975;-87
2021/05/30 07:22:37;;;;;;;2.87;1.65;;;;;;;17.96;100.00;100325.05;1767397;79;21047;-84
2021/05/30 07:25:05;;;;;;;2.98;1.35;;;;;;;18.06;100.00;100330.62;1802630;78;21074;-88
2021/05/30 07:27:33;;;;;;;1.60;1.50;;;;;;;18.18;100.00;100330.55;1813846;79;21060;-92
2021/05/30 07:30:00;;;;;;;1.40;1.30;;;;;;;18.32;100.00;100336.07;1778849;79;21037;-91
2021/05/30 07:32:31;;;;;;;3.15;1.50;;;;;;;18.42;100.00;100327.45;1767139;80;21071;-92
2021/05/30 07:35:03;;;;;;;3.20;1.65;;;;;;;18.57;100.00;100330.98;1751573;80;21113;-91
2021/05/30 07:37:51;;;;;;;;;;;;;;;;;;;;;
2021/05/30 07:43:10;;;;;;;;;;;;;;;;;;;;;
2021/05/30 07:45:49;;;;;;;;;;;;;;;;;;;;;
2021/05/30 07:48:23;;;;;;;1.55;1.45;;;;;;;18.74;100.00;100355.92;1530454;92;21124;-91
2021/05/30 07:51:12;;;;;;;;;;;;;;;;;;;;;
2021/05/30 07:53:48;;;;;;;1.45;1.40;;;;;;;18.83;100.00;100361.47;1468116;95;21130;-91
2021/05/30 07:56:17;;;;;;;1.62;1.52;;;;;;;18.94;100.00;100352.34;1420651;98;21183;-90
2021/05/30 07:58:56;;;;;;;2.70;1.47;;;;;;;19.03;100.00;100353.09;1551938;91;21131;-90
2021/05/30 08:01:57;;;;;;;;;;;;;;;;;;;;;
2021/05/30 08:04:13;;;;;;;1.67;1.40;;;;;;;19.20;100.00;100367.80;1490327;90;21188;-86
2021/05/30 08:06:49;;;;;;;2.22;1.35;;;;;;;19.26;100.00;100362.83;1569642;90;21705;-90
2021/05/30 08:12:26;;;;;;;3.23;1.40;;;;;;;19.43;100.00;100361.65;1412315;98;21245;-92
2021/05/30 14:38:16;;;;;;;3.45;2.00;;;;;;;21.77;96.48;100571.04;1521650;90;21589;-93
2021/05/30 17:25:55;;;;;;;7.60;3.35;;;;;;;18.48;100.00;100644.94;1714784;81;21261;-92
2021/05/30 17:28:26;;;;;;;12.00;4.10;;;;;;;18.42;100.00;100649.89;1720840;80;21103;-88
2021/05/30 17:31:20;;;;;;;;;;;;;;;;;;;;;
2021/05/30 17:33:56;;;;;;;;;;;;;;;;;;;;;
2021/05/30 17:36:42;;;;;;;15.78;5.10;;;;;;;18.17;100.00;100660.91;1500098;93;21249;-92
2021/05/30 17:41:58;;;;;;;;;;;;;;;;;;;;;
2021/05/30 17:44:46;;;;;;;;;;;;;;;;;;;;;
2021/05/30 17:51:52;;;;;;;;;;;;;;;;;;;;;
2021/05/30 18:06:53;;;;;;;7.72;4.53;;;;;;;17.85;100.00;100687.52;1287483;108;21160;-91
2021/05/30 18:09:54;;;;;;;;;;;;;;;;;;;;;
2021/05/30 18:13:00;;;;;;;;;;;;;;;;;;;;;
2021/05/30 18:15:29;;;;;;;28.57;5.55;;;;;;;17.81;100.00;100705.96;1323742;101;21226;-89
2021/05/30 18:18:08;;;;;;;92.82;8.40;;;;;;;17.78;100.00;100703.64;1400921;100;21252;-91
2021/05/30 18:20:39;;;;;;;74.20;9.68;;;;;;;17.76;100.00;100709.08;1354606;104;21899;-89
2021/05/30 18:23:12;;;;;;;41.20;5.72;;;;;;;17.73;100.00;100708.57;1408567;100;21706;-90
2021/05/30 18:26:09;;;;;;;44.20;6.42;;;;;;;17.69;100.00;100713.81;1440020;96;21838;-90
2021/05/30 18:29:05;;;;;;;;;;;;;;;;;;;;;
2021/05/30 18:31:26;;;;;;;;;;;;;;;;;;;;;
2021/05/30 18:34:00;;;;;;;;;;;;;;;;;;;;;
2021/05/30 18:36:30;;;;;;;25.88;10.75;;;;;;;17.42;100.00;100714.38;1328768;105;21180;-90
2021/05/30 18:39:14;;;;;;;;;;;;;;;;;;;;;
2021/05/30 18:47:10;;;;;;;17.17;10.50;;;;;;;17.04;100.00;100719.94;1260820;104;21264;-93
2021/05/30 18:49:41;;;;;;;14.43;9.28;;;;;;;16.97;100.00;100726.30;1349210;104;21805;-90
2021/05/30 18:52:10;;;;;;;14.93;8.63;;;;;;;16.89;100.00;100719.64;1377274;102;22229;-90
2021/05/30 18:54:40;;;;;;;12.13;8.15;;;;;;;16.82;100.00;100725.19;1469657;95;21168;-88
2021/05/30 18:57:18;;;;;;;11.15;7.47;;;;;;;16.74;100.00;100721.17;1498334;92;21222;-89
2021/05/30 18:59:47;;;;;;;10.13;6.75;;;;;;;16.71;100.00;100722.31;1536538;91;21642;-91
2021/05/30 19:02:16;;;;;;;7.33;6.20;;;;;;;16.66;100.00;100723.27;1606411;87;21138;-88
2021/05/30 19:04:56;;;;;;;13.08;6.28;;;;;;;16.61;100.00;100723.73;1617770;86;21291;-88
